Skip to main content Skip to accessibility
This website is not compatible with your web browser. You should install a newer browser. If you live in Jersey and need help upgrading call the States of Jersey web team on 440099.
Homegov.je

Information and public services for the Island of Jersey

L'înformâtion et les sèrvices publyis pouor I'Île dé Jèrri

  • Choose the service you want to log in to:

  • gov.je

    Update your notification preferences

  • one.gov.je

    Access government services

  • CAESAR

    Clear goods through customs or claim relief

  • Talentlink

    View or update your States of Jersey job application

CI Airfield TAFs

JERSEY - EGJJ

EGJJ 220801Z 2209/2218 06008KT 9999 FEW014 PROB40 TEMPO 2209/2218 7000=

GUERNSEY - EGJB

EGJB 220801Z 2209/2218 05007KT 9999 FEW014 PROB30 TEMPO 2209/2218 8000 BKN010=

ALDERNEY - EGJA

EGJA 220801Z 2209/2218 05007KT 9999 FEW014 PROB30 TEMPO 2209/2218 7000 BKN010=

Back to top
rating button